Time;durP1;ratioP1;P1;durP2;ratioP2;P2;SDS_P1;SDS_P2;PMS_P1;PMS_P2;Temp;Humidity;BMP_temperature;BMP_pressure;BME280_temperature;BME280_humidity;BME280_pressure;Samples;Min_cycle;Max_cycle;Signal;HPM_P1;HPM_P2
2022/10/21 00:02:13;;;;;;;;;;;;;;;24.92;52.28;97868.91;586912;241;64922;-74
2022/10/21 00:04:41;;;;;;;;;;;;;;;24.93;54.10;97872.41;586911;241;62780;-74
2022/10/21 00:07:08;;;;;;;;;;;;;;;24.92;52.51;97868.91;586929;241;65145;-74
2022/10/21 00:09:36;;;;;;;;;;;;;;;24.91;54.45;97863.80;586977;241;66949;-74
2022/10/21 00:12:03;;;;;;;;;;;;;;;24.90;53.66;97865.69;586938;241;62954;-74
2022/10/21 00:14:31;;;;;;;;;;;;;;;24.89;53.30;97869.47;586958;241;64930;-72
2022/10/21 00:16:59;;;;;;;;;;;;;;;24.90;55.02;97867.58;586939;241;64918;-74
2022/10/21 00:19:26;;;;;;;;;;;;;;;24.88;52.07;97865.19;586913;241;62871;-74
2022/10/21 00:21:53;;;;;;;;;;;;;;;24.89;54.27;97864.09;586971;241;64903;-75
2022/10/21 00:24:21;;;;;;;;;;;;;;;24.87;53.02;97868.94;587008;241;64921;-72
2022/10/21 00:26:49;;;;;;;;;;;;;;;24.87;51.55;97866.25;586927;241;62849;-72
2022/10/21 00:29:17;;;;;;;;;;;;;;;24.87;52.59;97865.45;586936;241;67047;-72
2022/10/21 00:31:44;;;;;;;;;;;;;;;24.87;54.54;97868.14;586960;241;67031;-72
2022/10/21 00:34:12;;;;;;;;;;;;;;;24.87;53.67;97860.07;586953;241;65282;-72
2022/10/21 00:36:39;;;;;;;;;;;;;;;24.86;51.64;97861.16;586983;241;67298;-72
2022/10/21 00:39:07;;;;;;;;;;;;;;;24.86;52.21;97856.58;586936;241;65702;-72
2022/10/21 00:41:35;;;;;;;;;;;;;;;24.85;54.38;97859.53;586951;241;65036;-72
2022/10/21 00:44:03;;;;;;;;;;;;;;;24.84;53.94;97857.94;586950;241;67398;-72
2022/10/21 00:46:35;;;;;;;;;;;;;;;24.84;55.45;97857.94;586964;241;65536;-72
2022/10/21 00:49:04;;;;;;;;;;;;;;;24.82;53.84;97855.51;586984;241;59459;-73
2022/10/21 00:51:32;;;;;;;;;;;;;;;24.82;55.24;97860.89;586915;241;67415;-72
2022/10/21 00:54:00;;;;;;;;;;;;;;;24.81;54.30;97845.84;586929;241;67229;-72
2022/10/21 00:56:30;;;;;;;;;;;;;;;24.81;54.01;97848.54;586950;241;64907;-72
2022/10/21 00:58:59;;;;;;;;;;;;;;;24.80;55.03;97850.42;586936;241;65206;-74
2022/10/21 01:01:26;;;;;;;;;;;;;;;24.80;55.27;97841.56;587462;241;67898;-74
2022/10/21 01:03:54;;;;;;;;;;;;;;;24.79;54.93;97839.94;588226;241;66209;-74
2022/10/21 01:06:23;;;;;;;;;;;;;;;24.77;55.77;97836.71;588219;241;67226;-74
2022/10/21 01:08:53;;;;;;;;;;;;;;;24.76;54.00;97835.91;588263;241;66702;-75
2022/10/21 01:11:21;;;;;;;;;;;;;;;24.76;56.48;97841.29;588282;241;65119;-74
2022/10/21 01:14:07;;;;;;;;;;;;;;;24.76;55.21;97835.91;588249;241;66802;-74
2022/10/21 01:16:42;;;;;;;;;;;;;;;24.74;54.77;97827.31;588247;241;66690;-73
2022/10/21 01:19:17;;;;;;;;;;;;;;;24.75;54.66;97822.77;588269;241;62805;-72
2022/10/21 01:21:46;;;;;;;;;;;;;;;24.74;56.29;97832.69;588268;241;65076;-72
2022/10/21 01:24:31;;;;;;;;;;;;;;;24.74;54.99;97821.14;588275;238;64607;-72
2022/10/21 01:27:16;;;;;;;;;;;;;;;24.73;55.66;97819.55;588222;241;64995;-72
2022/10/21 01:29:47;;;;;;;;;;;;;;;24.71;56.67;97819.80;588271;241;66850;-73
2022/10/21 01:32:26;;;;;;;;;;;;;;;24.71;56.56;97825.18;588583;238;66823;-72
2022/10/21 01:34:55;;;;;;;;;;;;;;;24.71;54.94;97819.80;588287;241;65989;-71
2022/10/21 01:37:24;;;;;;;;;;;;;;;24.70;57.71;97820.89;588213;239;67084;-73
2022/10/21 01:40:02;;;;;;;;;;;;;;;24.69;56.80;97816.61;588220;241;66898;-74
2022/10/21 01:42:34;;;;;;;;;;;;;;;24.68;57.06;97828.42;588297;238;62738;-75
2022/10/21 01:45:03;;;;;;;;;;;;;;;24.68;57.43;97824.94;583856;241;64906;-73
2022/10/21 01:47:35;;;;;;;;;;;;;;;24.67;55.88;97834.09;588223;241;64868;-71
2022/10/21 01:50:07;;;;;;;;;;;;;;;24.68;55.97;97833.00;588242;241;63762;-72
2022/10/21 01:52:34;;;;;;;;;;;;;;;24.67;55.46;97839.47;588223;241;64666;-72
2022/10/21 01:55:04;;;;;;;;;;;;;;;24.67;56.38;97842.95;588234;241;64862;-72
2022/10/21 01:57:33;;;;;;;;;;;;;;;24.66;55.86;97840.52;588211;241;62660;-72
2022/10/21 02:00:01;;;;;;;;;;;;;;;24.65;57.90;97837.04;588177;238;68152;-72
2022/10/21 02:02:31;;;;;;;;;;;;;;;24.65;56.26;97842.41;587116;241;45780;-72
2022/10/21 02:05:00;;;;;;;;;;;;;;;24.65;54.94;97838.92;587002;241;64922;-72
2022/10/21 02:07:28;;;;;;;;;;;;;;;24.64;56.15;97835.44;586943;241;64997;-72
2022/10/21 02:09:55;;;;;;;;;;;;;;;24.64;54.55;97840.02;586909;241;65372;-72
2022/10/21 02:12:24;;;;;;;;;;;;;;;24.64;56.57;97848.08;586955;241;66114;-72
2022/10/21 02:14:53;;;;;;;;;;;;;;;24.64;55.55;97848.08;586924;241;64954;-73
2022/10/21 02:17:21;;;;;;;;;;;;;;;24.62;58.16;97850.23;586983;241;66883;-73
2022/10/21 02:19:49;;;;;;;;;;;;;;;24.61;55.45;97853.98;586930;241;63920;-73
2022/10/21 02:22:18;;;;;;;;;;;;;;;24.61;56.11;97853.98;586939;241;67098;-73
2022/10/21 02:24:47;;;;;;;;;;;;;;;24.60;56.33;97855.86;586921;241;66907;-73
2022/10/21 02:27:14;;;;;;;;;;;;;;;24.59;57.58;97855.06;586899;240;70175;-73
2022/10/21 02:29:42;;;;;;;;;;;;;;;24.58;55.08;97864.22;586943;241;66880;-73
2022/10/21 02:32:26;;;;;;;;;;;;;;;24.58;57.91;97860.70;586950;241;67192;-73
2022/10/21 02:35:05;;;;;;;;;;;;;;;24.57;55.17;97867.97;586911;241;65266;-73
2022/10/21 02:37:39;;;;;;;;;;;;;;;24.56;58.69;97869.05;587006;238;65445;-73
2022/10/21 02:40:11;;;;;;;;;;;;;;;24.55;55.18;97867.45;586972;238;68545;-72
2022/10/21 02:42:40;;;;;;;;;;;;;;;24.55;55.79;97877.38;586970;238;63829;-72
2022/10/21 02:45:08;;;;;;;;;;;;;;;24.56;58.62;97874.43;586957;239;67881;-71
2022/10/21 02:47:36;;;;;;;;;;;;;;;24.53;53.88;97874.18;586997;241;66916;-71
2022/10/21 02:50:04;;;;;;;;;;;;;;;24.53;55.74;97871.50;586928;241;65063;-71
2022/10/21 02:52:31;;;;;;;;;;;;;;;24.51;56.79;97885.19;586944;241;67136;-71
2022/10/21 02:54:59;;;;;;;;;;;;;;;24.52;56.24;97885.98;586950;241;64891;-71
2022/10/21 02:57:26;;;;;;;;;;;;;;;24.51;55.82;97882.50;586922;241;64969;-71
2022/10/21 02:59:54;;;;;;;;;;;;;;;24.52;58.48;97883.30;586936;241;67992;-71
2022/10/21 03:02:21;;;;;;;;;;;;;;;24.51;58.58;97881.70;587937;241;66797;-71
2022/10/21 03:04:49;;;;;;;;;;;;;;;24.49;56.94;97891.91;588197;241;64884;-71
2022/10/21 03:07:16;;;;;;;;;;;;;;;24.50;54.49;97888.13;588190;241;65025;-71
2022/10/21 03:09:44;;;;;;;;;;;;;;;24.49;55.62;97887.34;588231;241;64852;-71
2022/10/21 03:12:11;;;;;;;;;;;;;;;24.50;54.54;97885.45;588265;241;62672;-71
2022/10/21 03:14:39;;;;;;;;;;;;;;;24.49;57.72;97883.85;588227;241;66987;-71
2022/10/21 03:17:06;;;;;;;;;;;;;;;24.48;56.77;97883.05;588239;241;67565;-71
2022/10/21 03:19:34;;;;;;;;;;;;;;;24.47;56.94;97876.08;588163;241;66136;-71
2022/10/21 03:22:01;;;;;;;;;;;;;;;24.46;54.35;97871.77;588215;241;67113;-71
2022/10/21 03:24:29;;;;;;;;;;;;;;;24.46;55.23;97876.34;588241;241;67316;-71
2022/10/21 03:26:56;;;;;;;;;;;;;;;24.46;56.25;97870.96;588209;241;65387;-71
2022/10/21 03:29:24;;;;;;;;;;;;;;;24.46;55.71;97868.28;588198;241;67114;-71
2022/10/21 03:31:51;;;;;;;;;;;;;;;24.45;54.93;97872.85;588201;241;66947;-71
2022/10/21 03:34:19;;;;;;;;;;;;;;;24.46;57.48;97871.77;588191;241;65169;-71
2022/10/21 03:36:46;;;;;;;;;;;;;;;24.45;55.62;97872.85;588272;241;67193;-74
2022/10/21 03:39:14;;;;;;;;;;;;;;;24.44;55.35;97876.59;588214;241;66960;-73
2022/10/21 03:41:41;;;;;;;;;;;;;;;24.44;56.55;97873.91;588218;241;65139;-74
2022/10/21 03:44:09;;;;;;;;;;;;;;;24.44;54.89;97873.11;588215;241;66802;-74
2022/10/21 03:46:36;;;;;;;;;;;;;;;24.44;58.16;97875.80;588194;241;67043;-72
2022/10/21 03:49:04;;;;;;;;;;;;;;;24.42;55.25;97875.23;588206;241;65652;-72
2022/10/21 03:51:32;;;;;;;;;;;;;;;24.41;54.17;97877.11;588281;241;65239;-73
2022/10/21 03:53:59;;;;;;;;;;;;;;;24.41;56.09;97877.11;588231;241;64532;-72
2022/10/21 03:56:27;;;;;;;;;;;;;;;24.41;53.92;97882.48;588216;241;62858;-72
2022/10/21 03:58:54;;;;;;;;;;;;;;;24.41;55.95;97887.86;588222;241;67110;-73
2022/10/21 04:01:22;;;;;;;;;;;;;;;24.40;53.87;97878.20;588102;241;68000;-73
2022/10/21 04:03:49;;;;;;;;;;;;;;;24.40;54.18;97886.27;588280;241;62180;-72
2022/10/21 04:06:17;;;;;;;;;;;;;;;24.40;54.63;97878.20;588231;241;64922;-73
2022/10/21 04:08:44;;;;;;;;;;;;;;;24.38;55.62;97886.52;588227;241;66971;-72
2022/10/21 04:11:12;;;;;;;;;;;;;;;24.39;56.05;97879.30;588226;241;62952;-72
2022/10/21 04:13:39;;;;;;;;;;;;;;;24.38;56.40;97880.34;588201;241;67130;-72
2022/10/21 04:16:08;;;;;;;;;;;;;;;24.37;53.08;97884.13;588242;241;66655;-73
2022/10/21 04:18:35;;;;;;;;;;;;;;;24.37;55.53;97878.75;588179;241;63219;-74
2022/10/21 04:21:03;;;;;;;;;;;;;;;24.36;56.57;97874.44;588153;241;65094;-73
2022/10/21 04:23:30;;;;;;;;;;;;;;;24.36;56.98;97891.38;588208;241;64873;-72
2022/10/21 04:25:58;;;;;;;;;;;;;;;24.36;56.30;97887.87;588257;241;64856;-72
2022/10/21 04:28:25;;;;;;;;;;;;;;;24.35;56.48;97883.58;588234;241;67126;-72
2022/10/21 04:30:53;;;;;;;;;;;;;;;24.34;57.69;97887.36;588254;241;66758;-72
2022/10/21 04:33:20;;;;;;;;;;;;;;;24.34;56.13;97887.36;588228;241;62733;-72
2022/10/21 04:35:48;;;;;;;;;;;;;;;24.34;54.56;97888.16;588228;241;64890;-72
2022/10/21 04:38:16;;;;;;;;;;;;;;;24.32;55.98;97879.56;588208;241;65237;-72
2022/10/21 04:40:43;;;;;;;;;;;;;;;24.34;58.10;97879.30;588242;241;65993;-72
2022/10/21 04:43:11;;;;;;;;;;;;;;;24.32;57.10;97874.19;588212;241;68023;-72
2022/10/21 04:45:39;;;;;;;;;;;;;;;24.32;54.79;97878.75;588238;241;64894;-72
2022/10/21 04:48:07;;;;;;;;;;;;;;;24.31;58.45;97867.22;588236;241;64949;-72
2022/10/21 04:50:34;;;;;;;;;;;;;;;24.32;57.14;97876.07;588184;241;67271;-72
2022/10/21 04:53:01;;;;;;;;;;;;;;;24.32;57.46;97884.13;588280;241;66907;-72
2022/10/21 04:55:29;;;;;;;;;;;;;;;24.31;58.19;97877.16;588230;241;65135;-72
2022/10/21 04:57:57;;;;;;;;;;;;;;;24.32;58.60;97884.13;588198;241;66864;-72
2022/10/21 05:00:24;;;;;;;;;;;;;;;24.31;57.90;97872.59;588222;241;66865;-72
2022/10/21 05:02:52;;;;;;;;;;;;;;;24.30;58.39;97881.70;588185;241;65069;-72
2022/10/21 05:05:19;;;;;;;;;;;;;;;24.31;58.08;97874.47;588267;241;67355;-74
2022/10/21 05:07:47;;;;;;;;;;;;;;;24.32;56.64;97884.13;588203;241;66947;-72
2022/10/21 05:10:14;;;;;;;;;;;;;;;24.31;57.63;97880.64;588230;241;65257;-72
2022/10/21 05:12:42;;;;;;;;;;;;;;;24.31;56.21;97880.64;588238;241;67095;-73
2022/10/21 05:15:09;;;;;;;;;;;;;;;24.33;57.17;97893.78;588218;241;66970;-73
2022/10/21 05:17:37;;;;;;;;;;;;;;;24.32;57.59;97890.30;588304;241;65166;-74
2022/10/21 05:20:05;;;;;;;;;;;;;;;24.32;59.28;97887.62;588260;241;64795;-74
2022/10/21 05:22:33;;;;;;;;;;;;;;;24.33;57.98;97891.10;588104;241;66681;-74
2022/10/21 05:25:00;;;;;;;;;;;;;;;24.33;56.03;97896.47;588248;241;64951;-73
2022/10/21 05:27:28;;;;;;;;;;;;;;;24.33;59.48;97893.78;588192;241;66913;-73
2022/10/21 05:29:57;;;;;;;;;;;;;;;24.32;56.25;97901.05;588196;241;66718;-74
2022/10/21 05:32:24;;;;;;;;;;;;;;;24.34;58.39;97895.41;588251;241;64914;-74
2022/10/21 05:34:52;;;;;;;;;;;;;;;24.33;55.72;97899.16;587957;241;66911;-74
2022/10/21 05:37:19;;;;;;;;;;;;;;;24.34;58.57;97898.10;587992;241;67784;-74
2022/10/21 05:39:47;;;;;;;;;;;;;;;24.35;56.71;97899.70;588241;241;66096;-71
2022/10/21 05:42:14;;;;;;;;;;;;;;;24.35;56.69;97905.08;588135;241;66939;-71
2022/10/21 05:44:42;;;;;;;;;;;;;;;24.35;53.34;97891.64;588253;241;67738;-71
2022/10/21 05:47:09;;;;;;;;;;;;;;;24.36;53.91;97895.92;588177;241;64840;-71
2022/10/21 05:49:37;;;;;;;;;;;;;;;24.36;55.16;97901.30;587160;241;67096;-73
2022/10/21 05:52:04;;;;;;;;;;;;;;;24.36;55.39;97901.30;588160;241;65161;-72
2022/10/21 05:54:35;;;;;;;;;;;;;;;24.37;54.41;97908.30;588216;241;62759;-73
2022/10/21 05:57:02;;;;;;;;;;;;;;;24.36;55.31;97901.30;586538;241;66654;-73
2022/10/21 05:59:30;;;;;;;;;;;;;;;24.37;55.41;97905.61;585958;242;64921;-73
2022/10/21 06:01:57;;;;;;;;;;;;;;;24.38;55.46;97907.22;587738;240;64229;-73
2022/10/21 06:04:25;;;;;;;;;;;;;;;24.38;55.21;97920.65;589644;240;64993;-75
2022/10/21 06:06:52;;;;;;;;;;;;;;;24.40;53.37;97912.33;589639;240;64885;-78
2022/10/21 06:09:20;;;;;;;;;;;;;;;24.41;54.35;97900.49;589693;240;62840;-76
2022/10/21 06:11:47;;;;;;;;;;;;;;;24.42;54.23;97910.98;590009;240;66684;-75
2022/10/21 06:14:14;;;;;;;;;;;;;;;24.43;51.75;97917.16;590079;240;67073;-74
2022/10/21 06:16:42;;;;;;;;;;;;;;;24.44;51.24;97914.21;589970;240;66061;-74
2022/10/21 06:19:09;;;;;;;;;;;;;;;24.45;53.06;97912.36;590005;240;68203;-71
2022/10/21 06:21:38;;;;;;;;;;;;;;;24.45;55.65;97906.98;590103;240;64798;-73
2022/10/21 06:24:06;;;;;;;;;;;;;;;24.47;55.71;97911.01;589975;240;65108;-72
2022/10/21 06:26:33;;;;;;;;;;;;;;;24.47;54.34;97911.01;590091;240;66934;-72
2022/10/21 06:29:01;;;;;;;;;;;;;;;24.49;57.50;97911.52;590038;240;67101;-71
2022/10/21 06:31:28;;;;;;;;;;;;;;;24.49;56.69;97911.52;590043;240;65089;-72
2022/10/21 06:33:56;;;;;;;;;;;;;;;24.51;54.27;97914.75;590060;240;67125;-71
2022/10/21 06:36:23;;;;;;;;;;;;;;;24.52;55.92;97916.34;590096;240;66945;-71
2022/10/21 06:38:51;;;;;;;;;;;;;;;24.54;55.12;97916.09;590080;240;64864;-72
2022/10/21 06:41:18;;;;;;;;;;;;;;;24.56;56.48;97908.56;590070;240;68032;-72
2022/10/21 06:43:46;;;;;;;;;;;;;;;24.56;56.59;97909.36;589982;240;64830;-72
2022/10/21 06:46:14;;;;;;;;;;;;;;;24.59;56.03;97911.50;590098;240;62804;-73
2022/10/21 06:48:41;;;;;;;;;;;;;;;24.61;53.35;97913.93;588468;240;65081;-73
2022/10/21 06:51:10;;;;;;;;;;;;;;;24.64;53.25;97908.00;589883;240;64842;-73
2022/10/21 06:53:38;;;;;;;;;;;;;;;24.67;52.49;97903.97;589853;240;62879;-73
2022/10/21 06:56:07;;;;;;;;;;;;;;;24.68;52.48;97897.50;589932;240;67118;-72
2022/10/21 06:58:46;;;;;;;;;;;;;;;24.69;50.38;97912.54;589909;240;67528;-71
2022/10/21 07:01:16;;;;;;;;;;;;;;;24.74;49.79;97912.53;586689;240;62799;-72
2022/10/21 07:03:43;;;;;;;;;;;;;;;24.77;51.97;97906.60;586899;241;68017;-70
2022/10/21 07:06:11;;;;;;;;;;;;;;;24.79;50.07;97904.45;586778;241;67517;-72
2022/10/21 07:08:39;;;;;;;;;;;;;;;24.81;50.64;97900.41;586831;241;65358;-70
2022/10/21 07:11:07;;;;;;;;;;;;;;;24.85;50.13;97900.66;586882;241;64985;-72
2022/10/21 07:13:34;;;;;;;;;;;;;;;24.86;50.80;97904.98;586771;241;65155;-72
2022/10/21 07:16:03;;;;;;;;;;;;;;;24.89;50.07;97901.73;586884;241;64433;-71
2022/10/21 07:18:31;;;;;;;;;;;;;;;24.91;52.46;97901.44;586850;241;67242;-72
2022/10/21 07:21:06;;;;;;;;;;;;;;;24.93;49.63;97902.78;586731;241;64849;-74
2022/10/21 07:23:34;;;;;;;;;;;;;;;24.96;50.41;97902.25;586847;241;65000;-73
2022/10/21 07:26:05;;;;;;;;;;;;;;;24.97;50.82;97898.47;586820;241;64566;-72
2022/10/21 07:28:33;;;;;;;;;;;;;;;25.00;50.96;97900.61;586903;241;64838;-72
2022/10/21 07:31:01;;;;;;;;;;;;;;;25.01;50.40;97899.52;586815;241;65060;-73
2022/10/21 07:33:28;;;;;;;;;;;;;;;25.04;50.83;97900.85;586851;241;67464;-75
2022/10/21 07:36:04;;;;;;;;;;;;;;;25.07;50.94;97888.74;585212;241;66923;-73
2022/10/21 07:38:31;;;;;;;;;;;;;;;25.08;51.43;97893.06;586647;241;63949;-75
2022/10/21 07:40:59;;;;;;;;;;;;;;;25.09;51.23;97884.70;578414;241;66995;-75
2022/10/21 07:43:26;;;;;;;;;;;;;;;25.11;51.01;97890.61;577716;245;64924;-74
2022/10/21 07:45:54;;;;;;;;;;;;;;;25.12;50.14;97889.52;577686;245;64710;-69
2022/10/21 07:48:22;;;;;;;;;;;;;;;25.12;49.06;97889.52;578811;244;67933;-73
2022/10/21 07:50:50;;;;;;;;;;;;;;;25.16;51.83;97889.83;580301;244;64905;-72
2022/10/21 07:53:20;;;;;;;;;;;;;;;25.18;53.34;97891.16;580324;244;65193;-73
2022/10/21 07:55:47;;;;;;;;;;;;;;;25.19;53.38;97897.33;580213;243;67858;-75
2022/10/21 07:58:15;;;;;;;;;;;;;;;25.22;53.99;97891.39;580336;244;66884;-73
2022/10/21 08:00:43;;;;;;;;;;;;;;;25.25;53.28;97886.25;580178;244;62744;-68
2022/10/21 08:03:11;;;;;;;;;;;;;;;25.27;55.12;97883.30;580239;244;67274;-67
2022/10/21 08:05:40;;;;;;;;;;;;;;;25.27;51.05;97880.61;580299;244;64551;-67
2022/10/21 08:08:07;;;;;;;;;;;;;;;25.30;52.99;97874.67;580283;244;64992;-74
2022/10/21 08:10:36;;;;;;;;;;;;;;;25.27;50.18;97883.30;580261;244;67068;-75
2022/10/21 08:13:04;;;;;;;;;;;;;;;25.32;53.13;97877.89;580267;244;66668;-68
2022/10/21 08:15:31;;;;;;;;;;;;;;;25.36;54.20;97878.93;580285;244;62743;-74
2022/10/21 08:17:59;;;;;;;;;;;;;;;25.38;54.77;97874.08;580200;244;67085;-75
2022/10/21 08:20:26;;;;;;;;;;;;;;;25.40;54.26;97873.78;580314;244;65204;-76
2022/10/21 08:22:54;;;;;;;;;;;;;;;25.42;54.82;97868.94;580305;244;62741;-69
2022/10/21 08:25:21;;;;;;;;;;;;;;;25.44;52.16;97867.58;580249;244;65753;-75
2022/10/21 08:27:49;;;;;;;;;;;;;;;25.47;51.61;97867.02;580238;244;64831;-75
2022/10/21 08:30:16;;;;;;;;;;;;;;;25.51;53.64;97866.45;580280;244;65243;-74
2022/10/21 08:32:44;;;;;;;;;;;;;;;25.51;55.32;97871.83;580287;244;67129;-76
2022/10/21 08:35:11;;;;;;;;;;;;;;;25.52;55.15;97868.08;580289;244;67007;-77
2022/10/21 08:37:39;;;;;;;;;;;;;;;25.53;54.23;97869.67;580162;244;64905;-76
2022/10/21 08:40:07;;;;;;;;;;;;;;;25.55;53.43;97859.44;580259;244;64694;-75
2022/10/21 08:42:38;;;;;;;;;;;;;;;25.57;53.80;97862.66;580235;244;65822;-75
2022/10/21 08:45:07;;;;;;;;;;;;;;;25.58;54.44;97861.57;580264;244;62830;-74
2022/10/21 08:47:38;;;;;;;;;;;;;;;25.58;55.03;97854.30;580332;244;67545;-76
2022/10/21 08:50:07;;;;;;;;;;;;;;;25.59;54.19;97858.61;580371;244;64870;-73
2022/10/21 08:52:36;;;;;;;;;;;;;;;25.60;53.21;97859.41;580129;244;63763;-74
2022/10/21 08:55:05;;;;;;;;;;;;;;;25.62;54.34;97857.25;580238;244;67171;-73
2022/10/21 08:57:34;;;;;;;;;;;;;;;25.63;54.96;97856.15;580336;244;66833;-72
2022/10/21 09:00:03;;;;;;;;;;;;;;;25.63;55.50;97850.77;580240;244;65124;-71
2022/10/21 09:02:41;;;;;;;;;;;;;;;25.63;54.84;97853.45;580229;244;64953;-73
2022/10/21 09:05:26;;;;;;;;;;;;;;;25.64;53.42;97849.67;579554;244;67241;-75
2022/10/21 09:07:58;;;;;;;;;;;;;;;25.66;54.68;97852.89;580214;244;65997;-73
2022/10/21 09:10:33;;;;;;;;;;;;;;;25.66;55.34;97850.20;580123;244;67166;-75
2022/10/21 09:13:03;;;;;;;;;;;;;;;25.66;54.70;97845.62;579807;244;64885;-73
2022/10/21 09:15:34;;;;;;;;;;;;;;;25.67;55.00;97847.24;580298;244;65643;-74
2022/10/21 09:18:13;;;;;;;;;;;;;;;25.68;54.23;97853.42;579648;244;64582;-73
2022/10/21 09:20:58;;;;;;;;;;;;;;;25.67;54.96;97849.94;580259;244;67835;-74
2022/10/21 09:23:30;;;;;;;;;;;;;;;25.68;55.30;97846.14;580287;244;65153;-75
2022/10/21 09:26:02;;;;;;;;;;;;;;;25.69;54.18;97846.94;580234;244;67105;-74
2022/10/21 09:28:30;;;;;;;;;;;;;;;25.69;54.58;97847.73;580287;244;66674;-75
2022/10/21 09:30:59;;;;;;;;;;;;;;;25.71;54.98;97847.47;580361;244;65419;-74
2022/10/21 09:33:28;;;;;;;;;;;;;;;25.71;54.16;97844.78;580315;244;66950;-75
2022/10/21 09:36:03;;;;;;;;;;;;;;;25.71;54.17;97839.39;580255;244;67771;-74
2022/10/21 09:38:41;;;;;;;;;;;;;;;25.72;54.55;97837.50;580241;244;65225;-77
2022/10/21 09:41:10;;;;;;;;;;;;;;;25.71;55.26;97834.02;579894;244;66869;-75
2022/10/21 09:43:38;;;;;;;;;;;;;;;25.72;54.99;97834.81;580134;244;66764;-74
2022/10/21 09:46:05;;;;;;;;;;;;;;;25.69;51.81;97830.80;580308;244;62670;-75
2022/10/21 09:48:38;;;;;;;;;;;;;;;25.70;54.58;97827.03;580280;244;64353;-73
2022/10/21 09:51:06;;;;;;;;;;;;;;;25.71;54.76;97823.24;579681;244;66907;-72
2022/10/21 09:53:35;;;;;;;;;;;;;;;25.71;54.82;97819.75;580271;244;62748;-74
2022/10/21 09:56:04;;;;;;;;;;;;;;;25.69;54.04;97814.64;580297;244;64390;-76
2022/10/21 09:58:40;;;;;;;;;;;;;;;25.68;53.87;97808.45;580196;244;64874;-74
2022/10/21 10:01:07;;;;;;;;;;;;;;;25.69;54.09;97809.25;580177;244;63738;-74
2022/10/21 10:03:36;;;;;;;;;;;;;;;25.69;54.68;97804.67;576130;244;65092;-73
2022/10/21 10:06:05;;;;;;;;;;;;;;;25.69;54.99;97801.18;571470;244;46911;-73
2022/10/21 10:08:35;;;;;;;;;;;;;;;25.67;53.25;97798.78;569687;244;62310;-73
2022/10/21 10:11:07;;;;;;;;;;;;;;;25.68;55.11;97802.28;580234;244;64967;-74
2022/10/21 10:13:35;;;;;;;;;;;;;;;25.68;55.06;97796.89;580277;244;65026;-73
2022/10/21 10:16:04;;;;;;;;;;;;;;;25.69;54.54;97798.48;580226;244;63819;-73
2022/10/21 10:18:32;;;;;;;;;;;;;;;25.69;54.99;97790.41;579928;244;67096;-73
2022/10/21 10:21:07;;;;;;;;;;;;;;;25.68;54.31;97788.81;580251;244;66925;-73
2022/10/21 10:23:45;;;;;;;;;;;;;;;25.68;54.86;97780.73;580281;244;65038;-73
2022/10/21 10:26:20;;;;;;;;;;;;;;;25.68;55.10;97778.05;580269;244;64871;-74
2022/10/21 10:28:52;;;;;;;;;;;;;;;25.67;54.43;97779.11;579028;243;66697;-72
2022/10/21 10:31:24;;;;;;;;;;;;;;;25.68;55.79;97778.84;580251;244;64912;-72
2022/10/21 10:33:53;;;;;;;;;;;;;;;25.69;54.55;97768.87;580094;244;64954;-74
2022/10/21 10:36:22;;;;;;;;;;;;;;;25.69;51.03;97769.67;580301;244;66901;-72
2022/10/21 10:38:54;;;;;;;;;;;;;;;25.72;53.56;97772.89;580051;244;64884;-72
2022/10/21 10:41:23;;;;;;;;;;;;;;;25.72;52.55;97771.00;580109;244;65883;-71
2022/10/21 10:43:54;;;;;;;;;;;;;;;25.73;51.40;97766.41;580136;244;66664;-72
2022/10/21 10:46:27;;;;;;;;;;;;;;;25.69;50.63;97766.98;580206;244;65120;-74
2022/10/21 10:48:56;;;;;;;;;;;;;;;25.61;48.30;97761.41;580293;244;67233;-73
2022/10/21 10:51:34;;;;;;;;;;;;;;;25.67;51.69;97757.58;580223;244;65155;-72
2022/10/21 10:54:09;;;;;;;;;;;;;;;25.68;52.93;97748.44;580215;244;65454;-72
2022/10/21 10:56:41;;;;;;;;;;;;;;;25.69;51.85;97755.42;580280;244;64908;-72
2022/10/21 10:59:10;;;;;;;;;;;;;;;25.68;52.10;97745.75;580338;244;64851;-72
2022/10/21 11:01:39;;;;;;;;;;;;;;;25.67;54.52;97733.36;580144;244;62869;-72
2022/10/21 11:04:15;;;;;;;;;;;;;;;25.66;54.16;97732.56;580137;244;67121;-73
2022/10/21 11:06:44;;;;;;;;;;;;;;;25.66;53.84;97726.38;580173;244;67779;-70
2022/10/21 11:09:12;;;;;;;;;;;;;;;25.65;52.98;97727.47;579909;243;62816;-71
2022/10/21 11:11:46;;;;;;;;;;;;;;;25.64;53.87;97723.95;580253;244;64559;-72
2022/10/21 11:14:15;;;;;;;;;;;;;;;25.64;54.21;97725.84;580245;244;67855;-71
2022/10/21 11:16:55;;;;;;;;;;;;;;;25.63;52.59;97727.74;580150;244;65342;-71
2022/10/21 11:19:24;;;;;;;;;;;;;;;25.64;53.91;97731.23;580075;244;64929;-71
2022/10/21 11:21:55;;;;;;;;;;;;;;;25.64;51.95;97731.23;580120;244;67099;-75
2022/10/21 11:24:40;;;;;;;;;;;;;;;25.66;52.48;97729.86;580232;244;64905;-71
2022/10/21 11:27:22;;;;;;;;;;;;;;;25.69;53.42;97723.11;580235;244;68091;-72
2022/10/21 11:29:56;;;;;;;;;;;;;;;25.68;52.26;97708.06;580048;244;64854;-73
2022/10/21 11:32:42;;;;;;;;;;;;;;;25.69;54.42;97709.66;580195;244;63075;-72
2022/10/21 11:35:27;;;;;;;;;;;;;;;25.69;55.30;97706.96;580275;244;64982;-72
2022/10/21 11:38:05;;;;;;;;;;;;;;;25.69;53.75;97706.96;580261;244;66980;-71
2022/10/21 11:40:35;;;;;;;;;;;;;;;25.68;53.99;97705.37;580222;244;65289;-71
2022/10/21 11:43:04;;;;;;;;;;;;;;;25.68;54.39;97702.67;580096;244;67101;-75
2022/10/21 11:45:33;;;;;;;;;;;;;;;25.67;54.60;97695.67;579094;244;66800;-72
2022/10/21 11:48:14;;;;;;;;;;;;;;;25.67;55.14;97695.67;579808;244;62684;-72
2022/10/21 11:50:43;;;;;;;;;;;;;;;25.66;55.17;97692.18;580103;244;67308;-72
2022/10/21 11:53:25;;;;;;;;;;;;;;;25.67;55.86;97690.28;580041;244;66913;-72
2022/10/21 11:56:00;;;;;;;;;;;;;;;25.67;54.78;97687.59;580066;244;65496;-72
2022/10/21 11:58:38;;;;;;;;;;;;;;;25.67;55.55;97692.98;579962;244;68882;-72
2022/10/21 12:01:22;;;;;;;;;;;;;;;25.67;56.52;97688.42;579981;244;64580;-70
2022/10/21 12:03:59;;;;;;;;;;;;;;;25.68;54.61;97689.22;579549;244;62978;-71
2022/10/21 12:06:39;;;;;;;;;;;;;;;25.69;55.47;97682.73;579971;244;67293;-70
2022/10/21 12:09:12;;;;;;;;;;;;;;;25.68;56.30;97681.14;578217;243;54604;-73
2022/10/21 12:11:48;;;;;;;;;;;;;;;25.68;56.27;97684.63;579815;244;65125;-70
2022/10/21 12:14:34;;;;;;;;;;;;;;;25.69;54.41;97680.84;580280;244;64607;-72
2022/10/21 12:17:06;;;;;;;;;;;;;;;25.69;55.53;97675.45;580226;244;49334;-70
2022/10/21 12:19:39;;;;;;;;;;;;;;;25.70;56.63;97687.05;580126;244;63190;-70
2022/10/21 12:22:12;;;;;;;;;;;;;;;25.70;56.08;97687.05;579572;244;47791;-70
2022/10/21 12:24:58;;;;;;;;;;;;;;;25.70;56.09;97678.97;580223;244;65089;-70
2022/10/21 12:27:34;;;;;;;;;;;;;;;25.69;56.27;97678.14;579618;241;47371;-72
2022/10/21 12:30:11;;;;;;;;;;;;;;;25.69;54.91;97674.66;576377;242;64869;-71
2022/10/21 12:32:41;;;;;;;;;;;;;;;25.70;55.95;97678.97;576374;246;67136;-71
2022/10/21 12:35:31;;;;;;;;;;;;;;;25.70;55.19;97670.90;576326;245;65268;-73
2022/10/21 12:37:59;;;;;;;;;;;;;;;25.70;56.25;97673.59;576219;245;67373;-72
2022/10/21 12:40:29;;;;;;;;;;;;;;;25.71;56.72;97677.88;576304;246;64911;-74
2022/10/21 12:43:05;;;;;;;;;;;;;;;25.70;55.17;97668.20;575812;244;47633;-72
2022/10/21 12:45:52;;;;;;;;;;;;;;;25.70;55.47;97670.90;576425;246;67153;-73
2022/10/21 12:51:24;;;;;;;;;;;;;;;25.69;56.31;97662.00;572884;247;47129;-73
2022/10/21 12:53:59;;;;;;;;;;;;;;;25.69;56.44;97672.77;573117;246;47017;-74
2022/10/21 12:56:34;;;;;;;;;;;;;;;25.69;54.51;97674.66;572816;247;47308;-73
2022/10/21 12:59:11;;;;;;;;;;;;;;;25.70;56.31;97670.90;573662;246;47456;-73
2022/10/21 13:01:51;;;;;;;;;;;;;;;25.70;54.21;97676.28;574035;244;49624;-73
2022/10/21 13:04:44;;;;;;;;;;;;;;;25.71;54.92;97671.70;577251;245;49476;-73
2022/10/21 13:07:21;;;;;;;;;;;;;;;25.71;54.95;97669.00;576666;244;46608;-74